createdAt,value
2023-02-24T00:02:05.599Z,10.10
2023-02-24T00:04:39.487Z,10.00
2023-02-24T00:07:09.023Z,10.65
2023-02-24T00:09:37.129Z,12.15
2023-02-24T00:12:08.840Z,12.25
2023-02-24T00:14:39.147Z,12.52
2023-02-24T00:17:10.267Z,11.98
2023-02-24T00:19:38.543Z,13.07
2023-02-24T00:22:07.987Z,12.73
2023-02-24T00:24:36.094Z,12.88
2023-02-24T00:27:11.028Z,13.00
2023-02-24T00:29:39.947Z,13.23
2023-02-24T00:32:08.179Z,13.40
2023-02-24T00:34:37.522Z,12.52
2023-02-24T00:37:06.902Z,12.18
2023-02-24T00:39:35.465Z,12.90
2023-02-24T00:42:05.910Z,12.30
2023-02-24T00:44:36.999Z,12.30
2023-02-24T00:47:07.031Z,12.80
2023-02-24T00:49:36.086Z,11.82
2023-02-24T00:52:08.003Z,11.50
2023-02-24T00:54:36.754Z,11.40
2023-02-24T00:57:03.988Z,12.27
2023-02-24T00:59:30.960Z,12.38
2023-02-24T01:01:58.115Z,11.68
2023-02-24T01:04:25.544Z,12.77
2023-02-24T01:06:59.950Z,12.35
2023-02-24T01:09:30.089Z,12.68
2023-02-24T01:12:17.234Z,12.60
2023-02-24T01:14:49.391Z,12.38
2023-02-24T01:17:19.215Z,12.27
2023-02-24T01:19:49.883Z,12.38
2023-02-24T01:22:19.795Z,11.85
2023-02-24T01:24:47.169Z,11.82
2023-02-24T01:27:18.499Z,12.13
2023-02-24T01:29:47.459Z,11.75
2023-02-24T01:32:19.480Z,12.93
2023-02-24T01:34:47.668Z,13.30
2023-02-24T01:37:16.335Z,13.23
2023-02-24T01:39:45.057Z,13.80
2023-02-24T01:42:20.524Z,14.25
2023-02-24T01:44:47.848Z,14.07
2023-02-24T01:47:18.472Z,14.25
2023-02-24T01:49:49.774Z,14.63
2023-02-24T01:52:26.192Z,14.23
2023-02-24T01:55:02.845Z,14.25
2023-02-24T01:57:35.307Z,15.60
2023-02-24T02:00:12.026Z,13.82
2023-02-24T02:02:47.401Z,14.57
2023-02-24T02:05:14.873Z,14.75
2023-02-24T02:07:43.536Z,15.77
2023-02-24T02:10:13.393Z,16.60
2023-02-24T02:12:44.321Z,14.73
2023-02-24T02:15:20.450Z,15.23
2023-02-24T02:18:28.018Z,15.95
2023-02-24T02:21:46.081Z,15.82
2023-02-24T02:24:27.554Z,15.50
2023-02-24T02:27:33.954Z,16.08
2023-02-24T02:31:04.195Z,14.38
2023-02-24T02:34:05.652Z,15.07
2023-02-24T02:36:36.591Z,14.68
2023-02-24T02:42:12.545Z,13.25
2023-02-24T02:45:21.398Z,14.32
2023-02-24T02:47:54.430Z,15.73
2023-02-24T02:50:27.022Z,15.38
2023-02-24T02:53:00.743Z,15.85
2023-02-24T02:55:40.460Z,15.13
2023-02-24T02:58:15.187Z,15.60
2023-02-24T03:00:58.684Z,15.07
2023-02-24T03:03:27.936Z,16.42
2023-02-24T03:06:11.929Z,15.90
2023-02-24T03:08:44.193Z,16.30
2023-02-24T03:11:15.326Z,16.25
2023-02-24T03:13:45.421Z,15.98
2023-02-24T03:16:14.614Z,15.88
2023-02-24T03:18:52.991Z,17.17
2023-02-24T03:21:39.868Z,15.43
2023-02-24T03:24:07.734Z,15.88
2023-02-24T03:27:01.523Z,15.13
2023-02-24T03:29:45.959Z,14.38
2023-02-24T03:32:20.128Z,14.52
2023-02-24T03:35:04.180Z,14.65
2023-02-24T03:37:33.510Z,13.27
2023-02-24T03:40:17.702Z,14.35
2023-02-24T03:42:57.588Z,13.60
2023-02-24T03:45:27.751Z,14.23
2023-02-24T03:47:56.055Z,13.63
2023-02-24T03:50:25.285Z,12.93
2023-02-24T03:53:22.316Z,13.57
2023-02-24T03:56:10.806Z,12.98
2023-02-24T03:58:57.533Z,12.68
2023-02-24T04:01:48.736Z,13.60
2023-02-24T04:04:37.915Z,12.07
2023-02-24T04:07:53.208Z,13.75
2023-02-24T04:10:52.425Z,13.38
2023-02-24T04:13:49.791Z,12.88
2023-02-24T04:16:36.389Z,12.13
2023-02-24T04:19:13.988Z,13.15
2023-02-24T04:21:45.217Z,13.85
2023-02-24T04:24:21.990Z,12.95
2023-02-24T04:26:51.753Z,13.65
2023-02-24T04:29:23.695Z,13.60
2023-02-24T04:31:59.408Z,13.00
2023-02-24T04:34:32.198Z,13.10
2023-02-24T04:37:02.220Z,12.50
2023-02-24T04:39:31.647Z,13.20
2023-02-24T04:42:01.604Z,12.63
2023-02-24T04:44:29.109Z,12.90
2023-02-24T04:46:56.509Z,12.65
2023-02-24T04:49:23.612Z,13.45
2023-02-24T04:51:51.553Z,13.90
2023-02-24T04:54:20.583Z,13.35
2023-02-24T04:56:50.650Z,13.10
2023-02-24T04:59:19.817Z,14.00
2023-02-24T05:01:51.482Z,14.63
2023-02-24T05:04:19.613Z,13.07
2023-02-24T05:06:47.238Z,14.50
2023-02-24T05:09:17.967Z,14.00
2023-02-24T05:11:49.331Z,13.32
2023-02-24T05:14:20.687Z,13.60
2023-02-24T05:16:49.229Z,15.25
2023-02-24T05:19:38.269Z,13.05
2023-02-24T05:22:07.158Z,13.52
2023-02-24T05:24:34.922Z,13.18
2023-02-24T05:27:03.616Z,13.43
2023-02-24T05:29:35.224Z,13.35
2023-02-24T05:32:04.290Z,15.05
2023-02-24T05:34:33.091Z,13.43
2023-02-24T05:37:04.399Z,13.43
2023-02-24T05:39:31.438Z,14.27
2023-02-24T05:41:58.475Z,14.30
2023-02-24T05:44:26.992Z,14.18
2023-02-24T05:46:58.622Z,13.55
2023-02-24T05:49:32.961Z,13.40
2023-02-24T05:52:07.276Z,13.07
2023-02-24T05:54:41.089Z,13.45
2023-02-24T05:57:12.211Z,13.23
2023-02-24T05:59:41.135Z,13.40
2023-02-24T06:02:17.454Z,13.02
2023-02-24T06:04:53.848Z,13.38
2023-02-24T06:07:27.339Z,13.93
2023-02-24T06:09:58.821Z,13.10
2023-02-24T06:12:34.503Z,12.98
2023-02-24T06:15:07.213Z,13.35
2023-02-24T06:17:34.194Z,14.38
2023-02-24T06:20:01.152Z,13.57
2023-02-24T06:22:28.122Z,12.38
2023-02-24T06:24:56.719Z,13.45
2023-02-24T06:27:24.548Z,13.10
2023-02-24T06:29:54.456Z,12.93
2023-02-24T06:32:25.936Z,13.63
2023-02-24T06:34:53.927Z,12.95
2023-02-24T06:37:22.696Z,12.63
2023-02-24T06:39:49.719Z,14.32
2023-02-24T06:42:16.695Z,12.55
2023-02-24T06:44:43.692Z,12.80
2023-02-24T06:47:16.211Z,12.25
2023-02-24T06:49:43.341Z,13.73
2023-02-24T06:52:11.545Z,13.63
2023-02-24T06:54:38.802Z,14.52
2023-02-24T06:57:05.826Z,13.35
2023-02-24T06:59:32.781Z,13.55
2023-02-24T07:02:04.081Z,14.23
2023-02-24T07:04:43.380Z,14.02
2023-02-24T07:07:10.970Z,12.10
2023-02-24T07:09:37.875Z,13.38
2023-02-24T07:12:05.279Z,13.77
2023-02-24T07:14:32.187Z,13.57
2023-02-24T07:16:59.773Z,13.20
2023-02-24T07:19:32.342Z,13.27
2023-02-24T07:22:03.416Z,13.35
2023-02-24T07:24:36.481Z,14.18
2023-02-24T07:27:08.200Z,12.85
2023-02-24T07:29:36.298Z,13.40
2023-02-24T07:32:08.412Z,13.80
2023-02-24T07:34:39.650Z,13.32
2023-02-24T07:39:39.028Z,13.23
2023-02-24T07:42:08.794Z,14.23
2023-02-24T07:44:45.434Z,14.15
2023-02-24T07:47:12.472Z,13.38
2023-02-24T07:49:40.840Z,15.05
2023-02-24T07:52:08.684Z,14.05
2023-02-24T07:54:37.297Z,14.27
2023-02-24T07:57:06.284Z,15.60
2023-02-24T07:59:37.706Z,15.65
2023-02-24T08:02:07.574Z,14.55
2023-02-24T08:04:36.251Z,14.23
2023-02-24T08:07:04.149Z,15.50
2023-02-24T08:09:45.463Z,14.10
2023-02-24T08:12:21.886Z,15.75
2023-02-24T08:14:52.124Z,14.73
2023-02-24T08:17:26.209Z,14.18
2023-02-24T08:20:15.637Z,15.38
2023-02-24T08:22:46.623Z,14.10
2023-02-24T08:25:19.123Z,13.82
2023-02-24T08:28:07.460Z,14.90
2023-02-24T08:30:40.180Z,13.45
2023-02-24T08:33:11.438Z,15.93
2023-02-24T08:38:18.747Z,14.93
2023-02-24T08:40:53.609Z,14.20
2023-02-24T08:43:30.836Z,14.05
2023-02-24T08:46:13.291Z,14.40
2023-02-24T08:48:46.470Z,13.48
2023-02-24T08:51:35.823Z,15.10
2023-02-24T08:54:31.861Z,12.48
2023-02-24T08:57:08.105Z,15.32
2023-02-24T08:59:40.998Z,15.85
2023-02-24T09:02:18.755Z,15.30
2023-02-24T09:04:49.058Z,15.88
2023-02-24T09:07:22.118Z,14.43
2023-02-24T09:09:49.475Z,14.93
2023-02-24T09:12:24.794Z,16.42
2023-02-24T09:15:00.986Z,15.85
2023-02-24T09:17:40.329Z,15.00
2023-02-24T09:20:32.235Z,16.38
2023-02-24T09:23:07.505Z,16.60
2023-02-24T09:25:49.279Z,15.73
2023-02-24T09:28:24.555Z,17.00
2023-02-24T09:30:55.034Z,18.30
2023-02-24T09:33:29.391Z,16.38
2023-02-24T09:36:10.321Z,16.05
2023-02-24T09:38:59.509Z,15.98
2023-02-24T09:41:56.157Z,15.77
2023-02-24T09:44:26.165Z,15.30
2023-02-24T09:47:00.605Z,15.70
2023-02-24T09:49:46.508Z,15.85
2023-02-24T09:52:17.580Z,15.85
2023-02-24T09:55:09.081Z,16.30
2023-02-24T09:58:16.921Z,17.35
2023-02-24T10:01:20.983Z,16.35
2023-02-24T10:04:18.562Z,16.65
2023-02-24T10:06:58.782Z,17.52
2023-02-24T10:10:19.274Z,17.33
2023-02-24T10:13:17.159Z,14.87
2023-02-24T10:15:57.825Z,16.40
2023-02-24T10:19:01.227Z,16.42
2023-02-24T10:22:02.685Z,16.48
2023-02-24T10:24:41.252Z,15.50
2023-02-24T10:27:23.858Z,16.63
2023-02-24T10:30:19.646Z,16.65
2023-02-24T10:32:58.629Z,16.40
2023-02-24T10:35:33.551Z,16.65
2023-02-24T10:38:05.762Z,16.60
2023-02-24T10:40:58.529Z,16.60
2023-02-24T10:43:30.272Z,15.07
2023-02-24T10:46:06.805Z,16.05
2023-02-24T10:48:42.247Z,15.82
2023-02-24T10:51:30.222Z,15.40
2023-02-24T10:54:31.343Z,16.30
2023-02-24T11:00:15.507Z,13.52
2023-02-24T11:03:22.026Z,15.95
2023-02-24T11:06:03.934Z,15.90
2023-02-24T11:08:39.673Z,16.20
2023-02-24T11:11:29.720Z,15.75
2023-02-24T11:14:21.275Z,16.05
2023-02-24T11:17:11.836Z,15.20
2023-02-24T11:19:55.485Z,15.18
2023-02-24T11:22:35.752Z,16.30
2023-02-24T11:25:27.289Z,16.05
2023-02-24T11:27:57.733Z,16.73
2023-02-24T11:30:54.751Z,17.20
2023-02-24T11:34:10.488Z,17.50
2023-02-24T11:36:48.974Z,14.80
2023-02-24T11:39:45.960Z,15.40
2023-02-24T11:42:21.462Z,15.10
2023-02-24T11:45:13.106Z,16.20
2023-02-24T11:47:50.105Z,14.55
2023-02-24T11:50:50.473Z,14.57
2023-02-24T11:53:45.808Z,13.95
2023-02-24T11:56:28.171Z,14.13
2023-02-24T11:59:12.700Z,15.05
2023-02-24T12:01:48.426Z,13.27
2023-02-24T12:04:39.312Z,14.13
2023-02-24T12:07:32.356Z,13.63
2023-02-24T12:10:17.867Z,13.32
2023-02-24T12:12:59.910Z,11.65
2023-02-24T12:15:43.009Z,9.88
2023-02-24T12:18:40.894Z,10.85
2023-02-24T12:21:09.998Z,12.13
2023-02-24T12:23:44.492Z,12.57
2023-02-24T12:26:42.575Z,12.20
2023-02-24T12:30:07.668Z,11.70
2023-02-24T12:32:34.686Z,11.40
2023-02-24T12:35:22.521Z,11.88
2023-02-24T12:38:17.665Z,12.10
2023-02-24T12:41:06.631Z,12.05
2023-02-24T12:43:58.262Z,11.50
2023-02-24T12:46:37.244Z,10.65
2023-02-24T12:49:40.250Z,10.70
2023-02-24T12:52:40.820Z,10.52
2023-02-24T12:55:25.820Z,10.75
2023-02-24T12:58:26.434Z,10.43
2023-02-24T13:01:15.400Z,10.80
2023-02-24T13:03:59.660Z,10.43
2023-02-24T13:06:57.095Z,10.05
2023-02-24T13:10:15.405Z,9.82
2023-02-24T13:13:30.187Z,9.68
2023-02-24T13:16:02.137Z,10.15
2023-02-24T13:18:35.817Z,11.05
2023-02-24T13:21:18.708Z,10.13
2023-02-24T13:24:03.397Z,9.55
2023-02-24T13:26:32.751Z,10.73
2023-02-24T13:29:12.740Z,11.32
2023-02-24T13:31:47.820Z,10.55
2023-02-24T13:34:22.024Z,10.50
2023-02-24T13:36:50.661Z,10.15
2023-02-24T13:39:37.532Z,10.13
2023-02-24T13:42:26.245Z,9.15
2023-02-24T13:45:20.966Z,10.45
2023-02-24T13:48:01.810Z,10.57
2023-02-24T13:50:43.369Z,9.88
2023-02-24T13:53:23.719Z,9.32
2023-02-24T13:56:34.027Z,9.35
2023-02-24T13:59:15.802Z,9.10
2023-02-24T14:02:16.792Z,8.38
2023-02-24T14:07:31.319Z,7.65
2023-02-24T14:10:02.598Z,10.32
2023-02-24T14:12:35.965Z,8.95
2023-02-24T14:15:05.165Z,8.88
2023-02-24T14:17:37.179Z,9.02
2023-02-24T14:20:09.853Z,9.13
2023-02-24T14:22:44.626Z,9.52
2023-02-24T14:25:13.336Z,9.55
2023-02-24T14:27:42.954Z,9.32
2023-02-24T14:30:28.299Z,10.07
2023-02-24T14:32:55.370Z,10.45
2023-02-24T14:35:45.204Z,9.63
2023-02-24T14:38:34.929Z,10.32
2023-02-24T14:41:05.631Z,9.77
2023-02-24T14:43:39.737Z,9.65
2023-02-24T14:46:06.862Z,9.90
2023-02-24T14:48:33.883Z,10.43
2023-02-24T14:51:12.573Z,10.15
2023-02-24T14:53:50.037Z,10.93
2023-02-24T14:56:19.394Z,11.02
2023-02-24T14:58:55.883Z,11.50
2023-02-24T15:01:33.714Z,11.77
2023-02-24T15:04:30.397Z,10.90
2023-02-24T15:06:57.532Z,11.45
2023-02-24T15:09:34.133Z,10.55
2023-02-24T15:12:19.244Z,10.60
2023-02-24T15:15:08.526Z,10.85
2023-02-24T15:17:40.860Z,10.48
2023-02-24T15:20:32.651Z,12.63
2023-02-24T15:23:00.160Z,9.30
2023-02-24T15:25:48.122Z,10.93
2023-02-24T15:28:30.877Z,9.68
2023-02-24T15:31:19.780Z,9.35
2023-02-24T15:34:00.225Z,8.40
2023-02-24T15:36:33.504Z,8.38
2023-02-24T15:39:06.656Z,9.27
2023-02-24T15:41:44.037Z,9.30
2023-02-24T15:44:31.397Z,9.50
2023-02-24T15:47:00.881Z,9.13
2023-02-24T15:49:27.858Z,8.88
2023-02-24T15:51:59.523Z,9.90
2023-02-24T15:54:36.275Z,9.93
2023-02-24T15:57:05.276Z,9.77
2023-02-24T15:59:32.492Z,10.05
2023-02-24T16:01:59.420Z,9.20
2023-02-24T16:04:27.511Z,9.98
2023-02-24T16:06:57.508Z,10.43
2023-02-24T16:09:37.411Z,9.32
2023-02-24T16:12:21.843Z,8.35
2023-02-24T16:15:02.104Z,7.88
2023-02-24T16:17:40.877Z,9.15
2023-02-24T16:20:28.132Z,8.90
2023-02-24T16:23:00.673Z,9.88
2023-02-24T16:25:30.107Z,9.98
2023-02-24T16:27:59.617Z,9.88
2023-02-24T16:30:30.326Z,10.32
2023-02-24T16:35:30.898Z,10.00
2023-02-24T16:37:57.815Z,10.68
2023-02-24T16:40:30.705Z,9.98
2023-02-24T16:42:57.702Z,8.85
2023-02-24T16:45:29.370Z,7.47
2023-02-24T16:48:02.157Z,5.35
2023-02-24T16:50:39.093Z,4.13
2023-02-24T16:53:18.608Z,3.78
2023-02-24T16:55:47.142Z,3.70
2023-02-24T16:58:15.089Z,3.60
2023-02-24T17:00:46.422Z,3.80
2023-02-24T17:03:33.334Z,4.18
2023-02-24T17:06:00.431Z,4.05
2023-02-24T17:08:27.603Z,3.80
2023-02-24T17:10:54.686Z,4.18
2023-02-24T17:13:22.432Z,4.10
2023-02-24T17:15:56.907Z,3.88
2023-02-24T17:18:25.779Z,4.40
2023-02-24T17:20:53.467Z,3.72
2023-02-24T17:23:20.616Z,4.63
2023-02-24T17:25:54.781Z,4.85
2023-02-24T17:28:22.214Z,4.38
2023-02-24T17:30:49.232Z,4.32
2023-02-24T17:33:16.260Z,5.03
2023-02-24T17:35:43.904Z,5.40
2023-02-24T17:38:22.266Z,5.18
2023-02-24T17:40:49.233Z,4.80
2023-02-24T17:43:16.228Z,3.88
2023-02-24T17:45:46.041Z,4.47
2023-02-24T17:48:15.097Z,4.75
2023-02-24T17:50:43.791Z,5.10
2023-02-24T17:53:10.961Z,4.95
2023-02-24T17:55:38.268Z,4.80
2023-02-24T17:58:05.452Z,4.28
2023-02-24T18:00:32.446Z,4.53
2023-02-24T18:03:01.638Z,4.38
2023-02-24T18:05:29.886Z,4.50
2023-02-24T18:07:59.953Z,5.25
2023-02-24T18:10:27.313Z,5.33
2023-02-24T18:12:54.277Z,5.03
2023-02-24T18:15:21.243Z,4.65
2023-02-24T18:17:48.172Z,4.75
2023-02-24T18:20:15.168Z,5.53
2023-02-24T18:22:42.233Z,5.53
2023-02-24T18:25:09.716Z,5.40
2023-02-24T18:27:36.855Z,5.70
2023-02-24T18:30:06.685Z,5.10
2023-02-24T18:32:34.419Z,4.85
2023-02-24T18:35:01.523Z,5.90
2023-02-24T18:37:28.493Z,6.32
2023-02-24T18:39:55.508Z,4.95
2023-02-24T18:42:22.586Z,5.28
2023-02-24T18:44:49.496Z,4.75
2023-02-24T18:47:16.561Z,4.97
2023-02-24T18:49:43.496Z,4.40
2023-02-24T18:52:11.729Z,3.97
2023-02-24T18:54:39.073Z,3.28
2023-02-24T18:57:05.998Z,3.15
2023-02-24T18:59:33.149Z,3.03
2023-02-24T19:02:00.218Z,2.50
2023-02-24T19:04:27.230Z,2.40
2023-02-24T19:06:54.250Z,2.80
2023-02-24T19:09:22.318Z,2.78
2023-02-24T19:11:50.182Z,1.88
2023-02-24T19:14:17.721Z,2.03
2023-02-24T19:16:45.208Z,1.98
2023-02-24T19:19:16.384Z,2.15
2023-02-24T19:24:13.665Z,2.00
2023-02-24T19:26:42.542Z,1.85
2023-02-24T19:29:10.784Z,1.90
2023-02-24T19:31:38.744Z,2.10
2023-02-24T19:34:11.042Z,1.80
2023-02-24T19:36:38.900Z,1.83
2023-02-24T19:39:12.218Z,1.75
2023-02-24T19:41:39.314Z,1.67
2023-02-24T19:44:06.475Z,1.80
2023-02-24T19:46:34.254Z,1.38
2023-02-24T19:49:01.805Z,1.50
2023-02-24T19:51:29.587Z,1.67
2023-02-24T19:54:00.307Z,1.67
2023-02-24T19:56:31.185Z,1.52
2023-02-24T19:59:00.056Z,1.73
2023-02-24T20:01:29.561Z,1.88
2023-02-24T20:04:01.488Z,1.88
2023-02-24T20:06:33.465Z,1.75
2023-02-24T20:09:00.735Z,1.58
2023-02-24T20:11:29.712Z,1.90
2023-02-24T20:13:59.552Z,1.63
2023-02-24T20:16:31.954Z,1.80
2023-02-24T20:19:00.016Z,1.60
2023-02-24T20:21:27.906Z,1.75
2023-02-24T20:23:54.841Z,1.48
2023-02-24T20:26:22.536Z,1.92
2023-02-24T20:28:49.701Z,1.77
2023-02-24T20:31:19.442Z,2.08
2023-02-24T20:33:48.538Z,1.90
2023-02-24T20:36:22.587Z,1.80
2023-02-24T20:38:50.518Z,1.83
2023-02-24T20:41:19.258Z,2.10
2023-02-24T20:43:46.704Z,1.90
2023-02-24T20:46:17.916Z,2.50
2023-02-24T20:48:45.231Z,2.22
2023-02-24T20:51:12.676Z,2.65
2023-02-24T20:53:56.138Z,2.15
2023-02-24T20:56:25.477Z,1.70
2023-02-24T20:58:59.889Z,1.80
2023-02-24T21:01:28.561Z,2.13
2023-02-24T21:03:55.654Z,1.92
2023-02-24T21:06:23.116Z,1.63
2023-02-24T21:08:51.074Z,2.08
2023-02-24T21:11:18.087Z,2.60
2023-02-24T21:13:49.249Z,1.95
2023-02-24T21:16:17.894Z,2.38
2023-02-24T21:18:47.405Z,2.47
2023-02-24T21:21:15.274Z,2.33
2023-02-24T21:23:43.617Z,2.33
2023-02-24T21:26:12.551Z,2.58
2023-02-24T21:28:40.543Z,1.83
2023-02-24T21:31:14.188Z,2.53
2023-02-24T21:33:41.493Z,1.95
2023-02-24T21:36:14.246Z,2.25
2023-02-24T21:38:41.509Z,2.10
2023-02-24T21:41:14.571Z,2.60
2023-02-24T21:43:44.025Z,1.85
2023-02-24T21:46:13.333Z,2.53
2023-02-24T21:48:41.682Z,2.58
2023-02-24T21:51:11.918Z,2.35
2023-02-24T21:53:43.370Z,2.25
2023-02-24T21:56:22.131Z,2.13
2023-02-24T21:58:55.733Z,2.08
2023-02-24T22:01:27.292Z,2.33
2023-02-24T22:03:56.923Z,2.25
2023-02-24T22:06:26.155Z,2.08
2023-02-24T22:08:55.276Z,2.28
2023-02-24T22:11:23.612Z,2.53
2023-02-24T22:13:50.853Z,2.20
2023-02-24T22:16:25.190Z,2.63
2023-02-24T22:18:55.148Z,2.53
2023-02-24T22:21:28.144Z,2.38
2023-02-24T22:23:59.417Z,2.20
2023-02-24T22:26:28.580Z,2.33
2023-02-24T22:28:55.650Z,2.65
2023-02-24T22:31:28.282Z,2.38
2023-02-24T22:33:55.388Z,2.20
2023-02-24T22:36:25.900Z,2.30
2023-02-24T22:38:55.614Z,2.63
2023-02-24T22:41:29.669Z,2.40
2023-02-24T22:43:56.637Z,2.63
2023-02-24T22:46:37.227Z,2.55
2023-02-24T22:49:05.517Z,2.25
2023-02-24T22:51:32.596Z,2.58
2023-02-24T22:53:59.568Z,2.90
2023-02-24T22:56:28.947Z,2.92
2023-02-24T22:58:57.144Z,2.70
2023-02-24T23:01:30.171Z,2.72
2023-02-24T23:04:01.246Z,3.10
2023-02-24T23:06:29.337Z,2.60
2023-02-24T23:08:59.437Z,2.35
2023-02-24T23:11:33.127Z,2.65
2023-02-24T23:14:05.393Z,2.22
2023-02-24T23:16:35.232Z,2.50
2023-02-24T23:19:12.804Z,2.33
2023-02-24T23:21:46.155Z,2.85
2023-02-24T23:24:15.087Z,2.72
2023-02-24T23:26:51.774Z,2.63
2023-02-24T23:29:19.547Z,2.63
2023-02-24T23:31:47.758Z,2.65
2023-02-24T23:34:15.622Z,2.75
2023-02-24T23:36:45.913Z,3.00
2023-02-24T23:39:16.307Z,2.60
2023-02-24T23:41:43.937Z,2.80
2023-02-24T23:44:12.263Z,3.17
2023-02-24T23:46:39.290Z,2.95
2023-02-24T23:49:06.304Z,2.92
2023-02-24T23:51:49.830Z,2.85
2023-02-24T23:54:20.325Z,2.78
2023-02-24T23:56:47.764Z,3.22
2023-02-24T23:59:15.259Z,2.53
